sensor_id;sensor_type;location;lat;lon;timestamp;P1;durP1;ratioP1;P2;durP2;ratioP2
68074;SDS011;54864;52.002;5.468;2023-03-31T00:00:11;18.67;;;4.85;;
68074;SDS011;54864;52.002;5.468;2023-03-31T00:01:12;12.43;;;4.93;;
68074;SDS011;54864;52.002;5.468;2023-03-31T00:02:14;18.35;;;5.05;;
68074;SDS011;54864;52.002;5.468;2023-03-31T00:03:14;16.03;;;5.37;;
68074;SDS011;54864;52.002;5.468;2023-03-31T00:04:21;11.85;;;5.00;;
68074;SDS011;54864;52.002;5.468;2023-03-31T00:05:23;19.02;;;4.78;;
68074;SDS011;54864;52.002;5.468;2023-03-31T00:06:24;15.27;;;4.97;;
68074;SDS011;54864;52.002;5.468;2023-03-31T00:07:25;16.02;;;5.00;;
68074;SDS011;54864;52.002;5.468;2023-03-31T00:08:28;17.17;;;4.80;;
68074;SDS011;54864;52.002;5.468;2023-03-31T00:09:35;20.52;;;5.60;;
68074;SDS011;54864;52.002;5.468;2023-03-31T00:10:37;19.27;;;4.78;;
68074;SDS011;54864;52.002;5.468;2023-03-31T00:11:44;14.98;;;5.07;;
68074;SDS011;54864;52.002;5.468;2023-03-31T00:12:46;15.40;;;4.78;;
68074;SDS011;54864;52.002;5.468;2023-03-31T00:13:46;16.90;;;4.30;;
68074;SDS011;54864;52.002;5.468;2023-03-31T00:14:48;20.20;;;5.10;;
68074;SDS011;54864;52.002;5.468;2023-03-31T00:15:49;17.38;;;5.32;;
68074;SDS011;54864;52.002;5.468;2023-03-31T00:16:57;25.45;;;5.25;;
68074;SDS011;54864;52.002;5.468;2023-03-31T00:17:57;19.50;;;5.43;;
68074;SDS011;54864;52.002;5.468;2023-03-31T00:18:59;15.73;;;4.93;;
68074;SDS011;54864;52.002;5.468;2023-03-31T00:20:01;16.38;;;5.13;;
68074;SDS011;54864;52.002;5.468;2023-03-31T00:21:05;16.43;;;4.73;;
68074;SDS011;54864;52.002;5.468;2023-03-31T00:22:07;16.73;;;4.65;;
68074;SDS011;54864;52.002;5.468;2023-03-31T00:23:09;17.15;;;4.57;;
68074;SDS011;54864;52.002;5.468;2023-03-31T00:24:10;13.65;;;4.80;;
68074;SDS011;54864;52.002;5.468;2023-03-31T00:25:14;15.45;;;4.78;;
68074;SDS011;54864;52.002;5.468;2023-03-31T00:26:15;16.30;;;4.37;;
68074;SDS011;54864;52.002;5.468;2023-03-31T00:27:17;13.95;;;4.05;;
68074;SDS011;54864;52.002;5.468;2023-03-31T00:28:17;10.70;;;4.50;;
68074;SDS011;54864;52.002;5.468;2023-03-31T00:29:19;20.83;;;4.38;;
68074;SDS011;54864;52.002;5.468;2023-03-31T00:30:22;13.10;;;4.32;;
68074;SDS011;54864;52.002;5.468;2023-03-31T00:31:26;13.82;;;4.45;;
68074;SDS011;54864;52.002;5.468;2023-03-31T00:32:27;19.05;;;5.07;;
68074;SDS011;54864;52.002;5.468;2023-03-31T00:33:29;16.63;;;4.88;;
68074;SDS011;54864;52.002;5.468;2023-03-31T00:34:30;20.83;;;4.78;;
68074;SDS011;54864;52.002;5.468;2023-03-31T00:35:33;17.65;;;4.45;;
68074;SDS011;54864;52.002;5.468;2023-03-31T00:36:34;16.40;;;4.90;;
68074;SDS011;54864;52.002;5.468;2023-03-31T00:37:44;15.70;;;4.63;;
68074;SDS011;54864;52.002;5.468;2023-03-31T00:38:46;13.45;;;4.47;;
68074;SDS011;54864;52.002;5.468;2023-03-31T00:39:48;12.40;;;4.70;;
68074;SDS011;54864;52.002;5.468;2023-03-31T00:40:50;17.80;;;5.13;;
68074;SDS011;54864;52.002;5.468;2023-03-31T00:41:51;15.93;;;4.68;;
68074;SDS011;54864;52.002;5.468;2023-03-31T00:42:53;14.85;;;4.50;;
68074;SDS011;54864;52.002;5.468;2023-03-31T00:44:07;16.67;;;5.25;;
68074;SDS011;54864;52.002;5.468;2023-03-31T00:45:27;16.33;;;5.07;;
68074;SDS011;54864;52.002;5.468;2023-03-31T00:46:29;16.02;;;4.63;;
68074;SDS011;54864;52.002;5.468;2023-03-31T00:47:35;18.67;;;4.80;;
68074;SDS011;54864;52.002;5.468;2023-03-31T00:48:36;17.37;;;4.47;;
68074;SDS011;54864;52.002;5.468;2023-03-31T00:49:39;16.33;;;4.90;;
68074;SDS011;54864;52.002;5.468;2023-03-31T00:50:45;20.70;;;5.38;;
68074;SDS011;54864;52.002;5.468;2023-03-31T00:51:50;16.50;;;5.15;;
68074;SDS011;54864;52.002;5.468;2023-03-31T00:52:53;14.30;;;5.28;;
68074;SDS011;54864;52.002;5.468;2023-03-31T00:53:58;17.40;;;5.47;;
68074;SDS011;54864;52.002;5.468;2023-03-31T00:55:05;16.83;;;5.10;;
68074;SDS011;54864;52.002;5.468;2023-03-31T00:56:12;15.23;;;5.10;;
68074;SDS011;54864;52.002;5.468;2023-03-31T00:57:17;13.95;;;5.05;;
68074;SDS011;54864;52.002;5.468;2023-03-31T00:58:17;16.02;;;4.82;;
68074;SDS011;54864;52.002;5.468;2023-03-31T00:59:22;15.50;;;4.47;;
68074;SDS011;54864;52.002;5.468;2023-03-31T01:00:28;17.05;;;5.25;;
68074;SDS011;54864;52.002;5.468;2023-03-31T01:01:29;13.73;;;4.68;;
68074;SDS011;54864;52.002;5.468;2023-03-31T01:02:32;14.63;;;5.07;;
68074;SDS011;54864;52.002;5.468;2023-03-31T01:03:32;18.38;;;5.05;;
68074;SDS011;54864;52.002;5.468;2023-03-31T01:04:36;12.70;;;4.27;;
68074;SDS011;54864;52.002;5.468;2023-03-31T01:05:41;14.80;;;4.80;;
68074;SDS011;54864;52.002;5.468;2023-03-31T01:06:47;15.83;;;4.83;;
68074;SDS011;54864;52.002;5.468;2023-03-31T01:07:59;15.75;;;5.10;;
68074;SDS011;54864;52.002;5.468;2023-03-31T01:09:02;15.88;;;4.97;;
68074;SDS011;54864;52.002;5.468;2023-03-31T01:10:06;17.70;;;6.55;;
68074;SDS011;54864;52.002;5.468;2023-03-31T01:11:09;16.07;;;5.30;;
68074;SDS011;54864;52.002;5.468;2023-03-31T01:12:15;17.52;;;5.10;;
68074;SDS011;54864;52.002;5.468;2023-03-31T01:13:18;14.10;;;5.32;;
68074;SDS011;54864;52.002;5.468;2023-03-31T01:14:23;12.85;;;4.65;;
68074;SDS011;54864;52.002;5.468;2023-03-31T01:15:26;13.13;;;4.70;;
68074;SDS011;54864;52.002;5.468;2023-03-31T01:16:26;15.13;;;5.50;;
68074;SDS011;54864;52.002;5.468;2023-03-31T01:17:28;12.75;;;5.20;;
68074;SDS011;54864;52.002;5.468;2023-03-31T01:18:29;13.48;;;4.97;;
68074;SDS011;54864;52.002;5.468;2023-03-31T01:19:43;17.77;;;5.43;;
68074;SDS011;54864;52.002;5.468;2023-03-31T01:21:01;16.13;;;5.13;;
68074;SDS011;54864;52.002;5.468;2023-03-31T01:29:11;16.70;;;4.68;;
68074;SDS011;54864;52.002;5.468;2023-03-31T01:30:27;14.43;;;5.03;;
68074;SDS011;54864;52.002;5.468;2023-03-31T01:32:04;13.75;;;4.40;;
68074;SDS011;54864;52.002;5.468;2023-03-31T01:33:40;13.93;;;5.00;;
68074;SDS011;54864;52.002;5.468;2023-03-31T01:35:09;18.77;;;5.22;;
68074;SDS011;54864;52.002;5.468;2023-03-31T01:36:54;15.10;;;4.85;;
68074;SDS011;54864;52.002;5.468;2023-03-31T01:41:23;16.55;;;5.13;;
68074;SDS011;54864;52.002;5.468;2023-03-31T01:42:35;15.95;;;5.63;;
68074;SDS011;54864;52.002;5.468;2023-03-31T01:43:40;14.38;;;4.97;;
68074;SDS011;54864;52.002;5.468;2023-03-31T01:44:48;11.77;;;5.13;;
68074;SDS011;54864;52.002;5.468;2023-03-31T01:45:59;14.05;;;4.93;;
68074;SDS011;54864;52.002;5.468;2023-03-31T01:47:05;12.38;;;5.20;;
68074;SDS011;54864;52.002;5.468;2023-03-31T01:48:13;14.57;;;4.68;;
68074;SDS011;54864;52.002;5.468;2023-03-31T01:49:19;14.48;;;5.00;;
68074;SDS011;54864;52.002;5.468;2023-03-31T01:50:28;12.20;;;4.78;;
68074;SDS011;54864;52.002;5.468;2023-03-31T01:51:37;18.55;;;5.40;;
68074;SDS011;54864;52.002;5.468;2023-03-31T01:52:48;13.70;;;4.93;;
68074;SDS011;54864;52.002;5.468;2023-03-31T01:53:59;15.75;;;4.68;;
68074;SDS011;54864;52.002;5.468;2023-03-31T01:55:06;14.77;;;4.63;;
68074;SDS011;54864;52.002;5.468;2023-03-31T01:56:14;15.35;;;4.40;;
68074;SDS011;54864;52.002;5.468;2023-03-31T01:57:21;12.50;;;4.32;;
68074;SDS011;54864;52.002;5.468;2023-03-31T01:58:28;9.18;;;4.07;;
68074;SDS011;54864;52.002;5.468;2023-03-31T01:59:37;13.30;;;4.30;;
68074;SDS011;54864;52.002;5.468;2023-03-31T02:00:46;11.35;;;4.15;;
68074;SDS011;54864;52.002;5.468;2023-03-31T02:01:51;13.05;;;4.43;;
68074;SDS011;54864;52.002;5.468;2023-03-31T02:02:58;13.90;;;4.43;;
68074;SDS011;54864;52.002;5.468;2023-03-31T02:04:04;17.40;;;4.93;;
68074;SDS011;54864;52.002;5.468;2023-03-31T02:05:11;13.73;;;4.15;;
68074;SDS011;54864;52.002;5.468;2023-03-31T02:06:17;11.85;;;4.20;;
68074;SDS011;54864;52.002;5.468;2023-03-31T02:07:27;11.32;;;4.10;;
68074;SDS011;54864;52.002;5.468;2023-03-31T02:08:34;15.02;;;4.25;;
68074;SDS011;54864;52.002;5.468;2023-03-31T02:09:41;19.13;;;4.72;;
68074;SDS011;54864;52.002;5.468;2023-03-31T02:10:46;16.00;;;4.65;;
68074;SDS011;54864;52.002;5.468;2023-03-31T02:11:50;15.70;;;4.72;;
68074;SDS011;54864;52.002;5.468;2023-03-31T02:12:55;16.67;;;4.88;;
68074;SDS011;54864;52.002;5.468;2023-03-31T02:13:59;16.27;;;4.45;;
68074;SDS011;54864;52.002;5.468;2023-03-31T02:15:04;16.45;;;4.75;;
68074;SDS011;54864;52.002;5.468;2023-03-31T02:16:11;13.80;;;4.38;;
68074;SDS011;54864;52.002;5.468;2023-03-31T02:17:19;16.05;;;4.63;;
68074;SDS011;54864;52.002;5.468;2023-03-31T02:18:30;16.45;;;4.68;;
68074;SDS011;54864;52.002;5.468;2023-03-31T02:19:37;14.93;;;4.47;;
68074;SDS011;54864;52.002;5.468;2023-03-31T02:20:40;14.68;;;4.20;;
68074;SDS011;54864;52.002;5.468;2023-03-31T02:21:45;20.27;;;5.40;;
68074;SDS011;54864;52.002;5.468;2023-03-31T02:22:49;14.07;;;4.78;;
68074;SDS011;54864;52.002;5.468;2023-03-31T02:23:53;17.30;;;4.70;;
68074;SDS011;54864;52.002;5.468;2023-03-31T02:24:55;14.90;;;4.20;;
68074;SDS011;54864;52.002;5.468;2023-03-31T02:26:00;18.67;;;4.97;;
68074;SDS011;54864;52.002;5.468;2023-03-31T02:27:06;16.38;;;4.57;;
68074;SDS011;54864;52.002;5.468;2023-03-31T02:28:13;17.08;;;4.97;;
68074;SDS011;54864;52.002;5.468;2023-03-31T02:29:20;18.00;;;4.90;;
68074;SDS011;54864;52.002;5.468;2023-03-31T02:30:21;18.83;;;5.40;;
68074;SDS011;54864;52.002;5.468;2023-03-31T02:31:25;20.40;;;5.07;;
68074;SDS011;54864;52.002;5.468;2023-03-31T02:32:28;15.98;;;4.57;;
68074;SDS011;54864;52.002;5.468;2023-03-31T02:33:32;16.95;;;4.82;;
68074;SDS011;54864;52.002;5.468;2023-03-31T02:34:33;15.38;;;4.00;;
68074;SDS011;54864;52.002;5.468;2023-03-31T02:35:35;17.02;;;4.78;;
68074;SDS011;54864;52.002;5.468;2023-03-31T02:36:36;11.82;;;5.18;;
68074;SDS011;54864;52.002;5.468;2023-03-31T02:37:37;15.00;;;4.80;;
68074;SDS011;54864;52.002;5.468;2023-03-31T02:38:41;14.20;;;4.78;;
68074;SDS011;54864;52.002;5.468;2023-03-31T02:39:46;16.45;;;4.80;;
68074;SDS011;54864;52.002;5.468;2023-03-31T02:40:50;12.68;;;4.95;;
68074;SDS011;54864;52.002;5.468;2023-03-31T02:41:52;18.80;;;4.85;;
68074;SDS011;54864;52.002;5.468;2023-03-31T02:42:54;17.52;;;4.68;;
68074;SDS011;54864;52.002;5.468;2023-03-31T02:43:56;12.10;;;4.53;;
68074;SDS011;54864;52.002;5.468;2023-03-31T02:45:00;22.17;;;5.27;;
68074;SDS011;54864;52.002;5.468;2023-03-31T02:46:03;15.50;;;4.63;;
68074;SDS011;54864;52.002;5.468;2023-03-31T02:47:05;14.52;;;4.28;;
68074;SDS011;54864;52.002;5.468;2023-03-31T02:48:09;15.65;;;4.88;;
68074;SDS011;54864;52.002;5.468;2023-03-31T02:49:12;14.10;;;4.20;;
68074;SDS011;54864;52.002;5.468;2023-03-31T02:50:16;16.02;;;4.78;;
68074;SDS011;54864;52.002;5.468;2023-03-31T02:52:49;12.38;;;3.75;;
68074;SDS011;54864;52.002;5.468;2023-03-31T02:54:06;13.77;;;4.20;;
68074;SDS011;54864;52.002;5.468;2023-03-31T02:55:27;13.18;;;3.58;;
68074;SDS011;54864;52.002;5.468;2023-03-31T02:56:51;10.85;;;4.05;;
68074;SDS011;54864;52.002;5.468;2023-03-31T02:58:20;17.75;;;3.60;;
68074;SDS011;54864;52.002;5.468;2023-03-31T02:59:36;14.00;;;4.20;;
68074;SDS011;54864;52.002;5.468;2023-03-31T03:00:51;10.55;;;3.72;;
68074;SDS011;54864;52.002;5.468;2023-03-31T03:02:06;15.60;;;4.53;;
68074;SDS011;54864;52.002;5.468;2023-03-31T03:03:19;13.48;;;3.70;;
68074;SDS011;54864;52.002;5.468;2023-03-31T03:04:37;10.98;;;3.67;;
68074;SDS011;54864;52.002;5.468;2023-03-31T03:05:57;16.70;;;3.78;;
68074;SDS011;54864;52.002;5.468;2023-03-31T03:07:06;16.17;;;4.00;;
68074;SDS011;54864;52.002;5.468;2023-03-31T03:08:15;19.08;;;4.38;;
68074;SDS011;54864;52.002;5.468;2023-03-31T03:09:29;12.45;;;4.20;;
68074;SDS011;54864;52.002;5.468;2023-03-31T03:10:38;15.23;;;3.70;;
68074;SDS011;54864;52.002;5.468;2023-03-31T03:11:48;15.60;;;3.95;;
68074;SDS011;54864;52.002;5.468;2023-03-31T03:12:58;11.70;;;4.22;;
68074;SDS011;54864;52.002;5.468;2023-03-31T03:14:11;18.02;;;4.05;;
68074;SDS011;54864;52.002;5.468;2023-03-31T03:15:23;15.82;;;4.15;;
68074;SDS011;54864;52.002;5.468;2023-03-31T03:16:29;15.05;;;4.18;;
68074;SDS011;54864;52.002;5.468;2023-03-31T03:17:36;12.60;;;4.20;;
68074;SDS011;54864;52.002;5.468;2023-03-31T03:18:41;15.50;;;4.15;;
68074;SDS011;54864;52.002;5.468;2023-03-31T03:19:42;14.88;;;4.18;;
68074;SDS011;54864;52.002;5.468;2023-03-31T03:20:43;11.05;;;4.03;;
68074;SDS011;54864;52.002;5.468;2023-03-31T03:21:48;20.97;;;5.00;;
68074;SDS011;54864;52.002;5.468;2023-03-31T03:22:50;15.13;;;4.88;;
68074;SDS011;54864;52.002;5.468;2023-03-31T03:23:50;16.30;;;4.75;;
68074;SDS011;54864;52.002;5.468;2023-03-31T03:24:52;12.52;;;3.88;;
68074;SDS011;54864;52.002;5.468;2023-03-31T03:25:53;13.07;;;3.97;;
68074;SDS011;54864;52.002;5.468;2023-03-31T03:26:55;14.35;;;3.97;;
68074;SDS011;54864;52.002;5.468;2023-03-31T03:27:56;10.77;;;3.72;;
68074;SDS011;54864;52.002;5.468;2023-03-31T03:28:58;11.90;;;4.00;;
68074;SDS011;54864;52.002;5.468;2023-03-31T03:30:00;14.20;;;4.57;;
68074;SDS011;54864;52.002;5.468;2023-03-31T03:31:03;17.35;;;4.10;;
68074;SDS011;54864;52.002;5.468;2023-03-31T03:32:05;14.07;;;4.28;;
68074;SDS011;54864;52.002;5.468;2023-03-31T03:33:06;20.08;;;4.50;;
68074;SDS011;54864;52.002;5.468;2023-03-31T03:34:07;13.95;;;4.20;;
68074;SDS011;54864;52.002;5.468;2023-03-31T03:35:09;13.70;;;4.03;;
68074;SDS011;54864;52.002;5.468;2023-03-31T03:36:10;11.48;;;3.70;;
68074;SDS011;54864;52.002;5.468;2023-03-31T03:37:12;14.57;;;4.13;;
68074;SDS011;54864;52.002;5.468;2023-03-31T03:38:13;13.40;;;3.70;;
68074;SDS011;54864;52.002;5.468;2023-03-31T03:39:15;13.48;;;3.50;;
68074;SDS011;54864;52.002;5.468;2023-03-31T03:40:15;16.10;;;3.53;;
68074;SDS011;54864;52.002;5.468;2023-03-31T03:41:17;10.45;;;3.00;;
68074;SDS011;54864;52.002;5.468;2023-03-31T03:42:18;17.88;;;4.00;;
68074;SDS011;54864;52.002;5.468;2023-03-31T03:43:20;12.60;;;3.10;;
68074;SDS011;54864;52.002;5.468;2023-03-31T03:44:20;12.90;;;3.73;;
68074;SDS011;54864;52.002;5.468;2023-03-31T03:45:23;11.05;;;3.58;;
68074;SDS011;54864;52.002;5.468;2023-03-31T03:46:24;15.48;;;3.90;;
68074;SDS011;54864;52.002;5.468;2023-03-31T03:47:26;15.35;;;3.88;;
68074;SDS011;54864;52.002;5.468;2023-03-31T03:48:27;13.18;;;2.97;;
68074;SDS011;54864;52.002;5.468;2023-03-31T03:49:28;11.98;;;3.47;;
68074;SDS011;54864;52.002;5.468;2023-03-31T03:50:29;12.68;;;3.30;;
68074;SDS011;54864;52.002;5.468;2023-03-31T03:51:31;11.02;;;3.25;;
68074;SDS011;54864;52.002;5.468;2023-03-31T03:52:31;9.53;;;2.93;;
68074;SDS011;54864;52.002;5.468;2023-03-31T03:53:33;16.10;;;3.47;;
68074;SDS011;54864;52.002;5.468;2023-03-31T03:54:34;9.63;;;2.87;;
68074;SDS011;54864;52.002;5.468;2023-03-31T03:55:35;9.40;;;3.08;;
68074;SDS011;54864;52.002;5.468;2023-03-31T03:56:36;7.90;;;2.88;;
68074;SDS011;54864;52.002;5.468;2023-03-31T03:57:38;11.48;;;2.45;;
68074;SDS011;54864;52.002;5.468;2023-03-31T03:58:38;11.97;;;3.17;;
68074;SDS011;54864;52.002;5.468;2023-03-31T03:59:40;7.97;;;2.75;;
68074;SDS011;54864;52.002;5.468;2023-03-31T04:00:42;10.48;;;3.15;;
68074;SDS011;54864;52.002;5.468;2023-03-31T04:01:44;8.52;;;2.90;;
68074;SDS011;54864;52.002;5.468;2023-03-31T04:02:45;7.47;;;2.80;;
68074;SDS011;54864;52.002;5.468;2023-03-31T04:03:46;8.45;;;2.83;;
68074;SDS011;54864;52.002;5.468;2023-03-31T04:04:47;11.18;;;2.67;;
68074;SDS011;54864;52.002;5.468;2023-03-31T04:05:49;10.75;;;2.97;;
68074;SDS011;54864;52.002;5.468;2023-03-31T04:06:49;8.07;;;2.40;;
68074;SDS011;54864;52.002;5.468;2023-03-31T04:07:51;9.68;;;3.00;;
68074;SDS011;54864;52.002;5.468;2023-03-31T04:08:52;9.55;;;2.90;;
68074;SDS011;54864;52.002;5.468;2023-03-31T04:09:54;7.73;;;3.00;;
68074;SDS011;54864;52.002;5.468;2023-03-31T04:10:54;11.40;;;3.00;;
68074;SDS011;54864;52.002;5.468;2023-03-31T04:11:56;10.48;;;2.88;;
68074;SDS011;54864;52.002;5.468;2023-03-31T04:12:57;14.17;;;3.57;;
68074;SDS011;54864;52.002;5.468;2023-03-31T04:13:58;9.18;;;3.00;;
68074;SDS011;54864;52.002;5.468;2023-03-31T04:14:59;9.23;;;2.85;;
68074;SDS011;54864;52.002;5.468;2023-03-31T04:16:02;15.82;;;3.63;;
68074;SDS011;54864;52.002;5.468;2023-03-31T04:17:03;11.60;;;3.15;;
68074;SDS011;54864;52.002;5.468;2023-03-31T04:18:04;13.45;;;3.35;;
68074;SDS011;54864;52.002;5.468;2023-03-31T04:19:05;11.07;;;3.15;;
68074;SDS011;54864;52.002;5.468;2023-03-31T04:20:08;10.98;;;3.63;;
68074;SDS011;54864;52.002;5.468;2023-03-31T04:21:11;14.65;;;3.78;;
68074;SDS011;54864;52.002;5.468;2023-03-31T04:22:14;13.38;;;4.32;;
68074;SDS011;54864;52.002;5.468;2023-03-31T04:23:20;17.75;;;4.40;;
68074;SDS011;54864;52.002;5.468;2023-03-31T04:24:25;15.02;;;4.35;;
68074;SDS011;54864;52.002;5.468;2023-03-31T04:25:29;12.50;;;4.00;;
68074;SDS011;54864;52.002;5.468;2023-03-31T04:26:32;16.80;;;4.22;;
68074;SDS011;54864;52.002;5.468;2023-03-31T04:27:42;16.40;;;4.88;;
68074;SDS011;54864;52.002;5.468;2023-03-31T04:28:45;12.80;;;4.57;;
68074;SDS011;54864;52.002;5.468;2023-03-31T04:29:49;12.38;;;3.70;;
68074;SDS011;54864;52.002;5.468;2023-03-31T04:30:53;12.30;;;3.92;;
68074;SDS011;54864;52.002;5.468;2023-03-31T04:31:59;16.38;;;4.10;;
68074;SDS011;54864;52.002;5.468;2023-03-31T04:33:01;14.43;;;4.50;;
68074;SDS011;54864;52.002;5.468;2023-03-31T04:34:03;13.80;;;4.07;;
68074;SDS011;54864;52.002;5.468;2023-03-31T04:35:06;11.52;;;3.80;;
68074;SDS011;54864;52.002;5.468;2023-03-31T04:36:07;11.77;;;3.97;;
68074;SDS011;54864;52.002;5.468;2023-03-31T04:37:16;12.02;;;3.88;;
68074;SDS011;54864;52.002;5.468;2023-03-31T04:38:18;14.93;;;3.90;;
68074;SDS011;54864;52.002;5.468;2023-03-31T04:39:21;16.10;;;4.25;;
68074;SDS011;54864;52.002;5.468;2023-03-31T04:40:25;16.60;;;4.25;;
68074;SDS011;54864;52.002;5.468;2023-03-31T04:41:26;16.23;;;3.97;;
68074;SDS011;54864;52.002;5.468;2023-03-31T04:42:28;15.80;;;4.68;;
68074;SDS011;54864;52.002;5.468;2023-03-31T04:43:28;15.83;;;4.60;;
68074;SDS011;54864;52.002;5.468;2023-03-31T04:44:30;16.23;;;4.63;;
68074;SDS011;54864;52.002;5.468;2023-03-31T04:45:31;14.82;;;4.40;;
68074;SDS011;54864;52.002;5.468;2023-03-31T04:46:32;15.52;;;4.95;;
68074;SDS011;54864;52.002;5.468;2023-03-31T04:47:35;12.82;;;4.28;;
68074;SDS011;54864;52.002;5.468;2023-03-31T04:48:37;13.48;;;4.90;;
68074;SDS011;54864;52.002;5.468;2023-03-31T04:49:38;12.88;;;4.85;;
68074;SDS011;54864;52.002;5.468;2023-03-31T04:50:40;12.00;;;4.57;;
68074;SDS011;54864;52.002;5.468;2023-03-31T04:51:41;16.17;;;4.75;;
68074;SDS011;54864;52.002;5.468;2023-03-31T04:52:43;14.30;;;5.13;;
68074;SDS011;54864;52.002;5.468;2023-03-31T04:53:44;15.37;;;4.80;;
68074;SDS011;54864;52.002;5.468;2023-03-31T04:54:46;11.55;;;4.30;;
68074;SDS011;54864;52.002;5.468;2023-03-31T04:55:47;12.27;;;4.65;;
68074;SDS011;54864;52.002;5.468;2023-03-31T04:56:49;17.13;;;4.50;;
68074;SDS011;54864;52.002;5.468;2023-03-31T04:57:49;11.33;;;4.47;;
68074;SDS011;54864;52.002;5.468;2023-03-31T04:58:51;13.82;;;4.07;;
68074;SDS011;54864;52.002;5.468;2023-03-31T04:59:52;14.88;;;4.97;;
68074;SDS011;54864;52.002;5.468;2023-03-31T05:00:54;18.00;;;4.35;;
68074;SDS011;54864;52.002;5.468;2023-03-31T05:01:55;12.85;;;4.55;;
68074;SDS011;54864;52.002;5.468;2023-03-31T05:02:59;12.82;;;4.13;;
68074;SDS011;54864;52.002;5.468;2023-03-31T05:04:00;15.30;;;4.73;;
68074;SDS011;54864;52.002;5.468;2023-03-31T05:05:03;11.82;;;4.07;;
68074;SDS011;54864;52.002;5.468;2023-03-31T05:06:04;16.45;;;4.55;;
68074;SDS011;54864;52.002;5.468;2023-03-31T05:07:08;17.75;;;4.40;;
68074;SDS011;54864;52.002;5.468;2023-03-31T05:08:10;13.48;;;3.97;;
68074;SDS011;54864;52.002;5.468;2023-03-31T05:09:10;10.02;;;3.75;;
68074;SDS011;54864;52.002;5.468;2023-03-31T05:10:12;12.48;;;4.00;;
68074;SDS011;54864;52.002;5.468;2023-03-31T05:11:13;16.67;;;4.20;;
68074;SDS011;54864;52.002;5.468;2023-03-31T05:12:15;15.23;;;4.38;;
68074;SDS011;54864;52.002;5.468;2023-03-31T05:13:16;12.45;;;4.10;;
68074;SDS011;54864;52.002;5.468;2023-03-31T05:14:17;21.27;;;4.88;;
68074;SDS011;54864;52.002;5.468;2023-03-31T05:15:19;14.15;;;4.00;;
68074;SDS011;54864;52.002;5.468;2023-03-31T05:16:20;11.83;;;3.77;;
68074;SDS011;54864;52.002;5.468;2023-03-31T05:17:22;13.57;;;3.95;;
68074;SDS011;54864;52.002;5.468;2023-03-31T05:18:24;16.10;;;4.60;;
68074;SDS011;54864;52.002;5.468;2023-03-31T05:19:25;14.30;;;4.13;;
68074;SDS011;54864;52.002;5.468;2023-03-31T05:20:26;12.23;;;3.70;;
68074;SDS011;54864;52.002;5.468;2023-03-31T05:21:28;12.30;;;3.83;;
68074;SDS011;54864;52.002;5.468;2023-03-31T05:22:29;12.48;;;3.90;;
68074;SDS011;54864;52.002;5.468;2023-03-31T05:23:35;13.98;;;3.67;;
68074;SDS011;54864;52.002;5.468;2023-03-31T05:24:35;13.67;;;3.37;;
68074;SDS011;54864;52.002;5.468;2023-03-31T05:25:37;14.45;;;3.67;;
68074;SDS011;54864;52.002;5.468;2023-03-31T05:26:38;18.50;;;4.20;;
68074;SDS011;54864;52.002;5.468;2023-03-31T05:27:40;10.65;;;3.78;;
68074;SDS011;54864;52.002;5.468;2023-03-31T05:28:41;15.25;;;4.00;;
68074;SDS011;54864;52.002;5.468;2023-03-31T05:29:42;15.25;;;4.15;;
68074;SDS011;54864;52.002;5.468;2023-03-31T05:30:44;14.23;;;4.13;;
68074;SDS011;54864;52.002;5.468;2023-03-31T05:31:45;11.87;;;3.57;;
68074;SDS011;54864;52.002;5.468;2023-03-31T05:32:47;10.43;;;3.42;;
68074;SDS011;54864;52.002;5.468;2023-03-31T05:33:49;14.57;;;3.97;;
68074;SDS011;54864;52.002;5.468;2023-03-31T05:34:51;13.70;;;3.28;;
68074;SDS011;54864;52.002;5.468;2023-03-31T05:35:51;11.57;;;3.42;;
68074;SDS011;54864;52.002;5.468;2023-03-31T05:36:53;9.88;;;3.60;;
68074;SDS011;54864;52.002;5.468;2023-03-31T05:37:54;12.68;;;3.47;;
68074;SDS011;54864;52.002;5.468;2023-03-31T05:38:56;12.18;;;3.50;;
68074;SDS011;54864;52.002;5.468;2023-03-31T05:39:56;13.13;;;3.65;;
68074;SDS011;54864;52.002;5.468;2023-03-31T05:40:58;13.15;;;3.35;;
68074;SDS011;54864;52.002;5.468;2023-03-31T05:41:59;10.57;;;3.40;;
68074;SDS011;54864;52.002;5.468;2023-03-31T05:43:00;11.43;;;3.63;;
68074;SDS011;54864;52.002;5.468;2023-03-31T05:44:01;14.50;;;3.80;;
68074;SDS011;54864;52.002;5.468;2023-03-31T05:45:03;13.63;;;3.55;;
68074;SDS011;54864;52.002;5.468;2023-03-31T05:46:05;10.02;;;3.85;;
68074;SDS011;54864;52.002;5.468;2023-03-31T05:47:07;10.93;;;3.28;;
68074;SDS011;54864;52.002;5.468;2023-03-31T05:48:08;12.15;;;3.72;;
68074;SDS011;54864;52.002;5.468;2023-03-31T05:49:11;13.50;;;3.83;;
68074;SDS011;54864;52.002;5.468;2023-03-31T05:50:15;12.18;;;3.42;;
68074;SDS011;54864;52.002;5.468;2023-03-31T05:51:16;13.60;;;3.78;;
68074;SDS011;54864;52.002;5.468;2023-03-31T05:52:17;11.95;;;3.30;;
68074;SDS011;54864;52.002;5.468;2023-03-31T05:53:18;11.45;;;4.43;;
68074;SDS011;54864;52.002;5.468;2023-03-31T05:54:20;14.93;;;3.78;;
68074;SDS011;54864;52.002;5.468;2023-03-31T05:55:22;11.60;;;3.95;;
68074;SDS011;54864;52.002;5.468;2023-03-31T05:56:22;13.90;;;4.00;;
68074;SDS011;54864;52.002;5.468;2023-03-31T05:57:26;11.18;;;3.60;;
68074;SDS011;54864;52.002;5.468;2023-03-31T05:58:27;13.33;;;3.37;;
68074;SDS011;54864;52.002;5.468;2023-03-31T05:59:29;9.60;;;3.10;;
68074;SDS011;54864;52.002;5.468;2023-03-31T06:00:30;13.27;;;4.17;;
68074;SDS011;54864;52.002;5.468;2023-03-31T06:01:31;11.77;;;3.75;;
68074;SDS011;54864;52.002;5.468;2023-03-31T06:02:32;11.50;;;3.92;;
68074;SDS011;54864;52.002;5.468;2023-03-31T06:03:35;11.85;;;3.97;;
68074;SDS011;54864;52.002;5.468;2023-03-31T06:04:39;9.80;;;3.33;;
68074;SDS011;54864;52.002;5.468;2023-03-31T06:05:45;13.45;;;3.78;;
68074;SDS011;54864;52.002;5.468;2023-03-31T06:06:46;10.65;;;3.28;;
68074;SDS011;54864;52.002;5.468;2023-03-31T06:07:49;11.52;;;3.50;;
68074;SDS011;54864;52.002;5.468;2023-03-31T06:08:50;10.77;;;3.13;;
68074;SDS011;54864;52.002;5.468;2023-03-31T06:09:51;9.77;;;3.15;;
68074;SDS011;54864;52.002;5.468;2023-03-31T06:10:53;11.13;;;3.20;;
68074;SDS011;54864;52.002;5.468;2023-03-31T06:11:54;9.73;;;3.40;;
68074;SDS011;54864;52.002;5.468;2023-03-31T06:12:55;15.05;;;3.40;;
68074;SDS011;54864;52.002;5.468;2023-03-31T06:13:56;10.40;;;2.97;;
68074;SDS011;54864;52.002;5.468;2023-03-31T06:14:58;10.00;;;3.13;;
68074;SDS011;54864;52.002;5.468;2023-03-31T06:15:59;9.13;;;2.57;;
68074;SDS011;54864;52.002;5.468;2023-03-31T06:17:00;10.63;;;2.97;;
68074;SDS011;54864;52.002;5.468;2023-03-31T06:18:02;7.22;;;2.65;;
68074;SDS011;54864;52.002;5.468;2023-03-31T06:19:03;13.20;;;2.80;;
68074;SDS011;54864;52.002;5.468;2023-03-31T06:20:07;9.27;;;2.35;;
68074;SDS011;54864;52.002;5.468;2023-03-31T06:21:09;7.28;;;3.17;;
68074;SDS011;54864;52.002;5.468;2023-03-31T06:22:13;9.05;;;2.72;;
68074;SDS011;54864;52.002;5.468;2023-03-31T06:23:14;8.80;;;2.80;;
68074;SDS011;54864;52.002;5.468;2023-03-31T06:24:16;10.73;;;2.53;;
68074;SDS011;54864;52.002;5.468;2023-03-31T06:25:16;9.03;;;2.80;;
68074;SDS011;54864;52.002;5.468;2023-03-31T06:26:18;12.93;;;2.97;;
68074;SDS011;54864;52.002;5.468;2023-03-31T06:27:19;7.90;;;2.28;;
68074;SDS011;54864;52.002;5.468;2023-03-31T06:28:20;9.05;;;2.72;;
68074;SDS011;54864;52.002;5.468;2023-03-31T06:29:21;9.25;;;2.60;;
68074;SDS011;54864;52.002;5.468;2023-03-31T06:30:23;8.30;;;3.33;;
68074;SDS011;54864;52.002;5.468;2023-03-31T06:31:24;9.63;;;2.90;;
68074;SDS011;54864;52.002;5.468;2023-03-31T06:32:26;12.90;;;3.05;;